createdAt,value
2018-12-29T00:00:00.329Z,33.20
2018-12-29T00:02:44.791Z,28.40
2018-12-29T00:05:29.451Z,31.13
2018-12-29T00:08:14.466Z,33.00
2018-12-29T00:10:58.635Z,32.37
2018-12-29T00:13:52.415Z,33.63
2018-12-29T00:16:36.841Z,33.80
2018-12-29T00:19:21.799Z,33.50
2018-12-29T00:22:06.079Z,35.77
2018-12-29T00:24:50.355Z,31.57
2018-12-29T00:27:43.899Z,34.83
2018-12-29T00:30:28.455Z,37.97
2018-12-29T00:33:13.026Z,31.40
2018-12-29T00:35:57.671Z,30.30
2018-12-29T00:38:42.268Z,31.37
2018-12-29T00:41:26.219Z,31.13
2018-12-29T00:44:18.135Z,30.60
2018-12-29T00:47:11.483Z,34.43
2018-12-29T00:49:56.016Z,30.47
2018-12-29T00:52:40.803Z,31.63
2018-12-29T00:55:26.184Z,32.17
2018-12-29T00:58:10.935Z,34.33
2018-12-29T01:00:55.564Z,33.53
2018-12-29T01:03:40.251Z,28.60
2018-12-29T01:06:25.131Z,33.37
2018-12-29T01:09:10.479Z,32.57
2018-12-29T01:12:10.195Z,33.63
2018-12-29T01:14:56.191Z,31.27
2018-12-29T01:17:41.216Z,36.57
2018-12-29T01:20:26.131Z,31.57
2018-12-29T01:23:10.383Z,34.30
2018-12-29T01:25:55.155Z,34.53
2018-12-29T01:28:39.852Z,30.90
2018-12-29T01:31:24.320Z,31.23
2018-12-29T01:34:17.522Z,30.93
2018-12-29T01:37:02.230Z,32.00
2018-12-29T01:39:47.207Z,27.40
2018-12-29T01:42:32.128Z,30.33
2018-12-29T01:45:17.561Z,29.17
2018-12-29T01:48:02.704Z,28.07
2018-12-29T01:50:47.785Z,30.53
2018-12-29T01:53:32.297Z,32.27
2018-12-29T01:56:16.908Z,30.97
2018-12-29T01:59:01.348Z,31.60
2018-12-29T02:01:54.840Z,31.33
2018-12-29T02:04:39.923Z,28.30
2018-12-29T02:07:24.726Z,30.83
2018-12-29T02:10:09.491Z,30.30
2018-12-29T02:12:53.920Z,25.47
2018-12-29T02:15:38.825Z,25.47
2018-12-29T02:18:23.735Z,26.13
2018-12-29T02:21:08.107Z,30.90
2018-12-29T02:23:52.650Z,29.00
2018-12-29T02:26:37.004Z,29.63
2018-12-29T02:29:30.595Z,26.73
2018-12-29T02:32:15.021Z,28.13
2018-12-29T02:34:59.465Z,29.73
2018-12-29T02:37:44.248Z,31.43
2018-12-29T02:40:29.368Z,31.50
2018-12-29T02:43:14.387Z,30.60
2018-12-29T02:45:59.127Z,30.90
2018-12-29T02:48:43.843Z,25.70
2018-12-29T02:51:28.767Z,30.73
2018-12-29T02:54:13.204Z,25.50
2018-12-29T02:56:57.906Z,27.30
2018-12-29T02:59:42.664Z,26.87
2018-12-29T03:02:27.402Z,29.97
2018-12-29T03:05:20.339Z,30.93
2018-12-29T03:08:05.204Z,32.37
2018-12-29T03:10:50.008Z,29.00
2018-12-29T03:13:34.417Z,30.37
2018-12-29T03:16:19.180Z,31.67
2018-12-29T03:19:04.004Z,26.57
2018-12-29T03:21:48.311Z,31.03
2018-12-29T03:24:43.795Z,31.70
2018-12-29T03:27:37.000Z,28.40
2018-12-29T03:30:21.113Z,30.03
2018-12-29T03:33:14.472Z,30.90
2018-12-29T03:35:58.679Z,28.63
2018-12-29T03:38:51.751Z,29.03
2018-12-29T03:41:36.384Z,29.63
2018-12-29T03:44:20.920Z,31.77
2018-12-29T03:47:05.711Z,29.93
2018-12-29T03:49:50.410Z,30.60
2018-12-29T03:52:35.128Z,28.23
2018-12-29T03:55:19.739Z,30.93
2018-12-29T03:58:13.023Z,31.23
2018-12-29T04:00:57.609Z,33.10
2018-12-29T04:03:41.967Z,28.63
2018-12-29T04:06:35.439Z,34.00
2018-12-29T04:09:19.791Z,32.13
2018-12-29T04:12:04.671Z,30.20
2018-12-29T04:14:49.127Z,32.93
2018-12-29T04:17:33.371Z,30.87
2018-12-29T04:20:26.785Z,29.43
2018-12-29T04:23:11.380Z,29.80
2018-12-29T04:25:56.199Z,30.27
2018-12-29T04:28:40.919Z,31.67
2018-12-29T04:31:25.785Z,32.23
2018-12-29T04:34:10.964Z,28.93
2018-12-29T04:36:55.582Z,28.10
2018-12-29T04:39:40.035Z,31.10
2018-12-29T04:42:24.257Z,30.20
2018-12-29T04:45:17.831Z,33.23
2018-12-29T04:48:02.906Z,34.07
2018-12-29T04:50:56.386Z,31.90
2018-12-29T04:53:41.149Z,31.30
2018-12-29T04:56:25.627Z,27.90
2018-12-29T04:59:10.134Z,29.77
2018-12-29T05:02:03.243Z,26.67
2018-12-29T05:04:47.778Z,30.73
2018-12-29T05:07:32.351Z,29.33
2018-12-29T05:10:17.319Z,28.00
2018-12-29T05:13:01.995Z,31.20
2018-12-29T05:15:46.712Z,27.13
2018-12-29T05:18:31.071Z,27.00
2018-12-29T05:21:24.884Z,31.00
2018-12-29T05:24:09.532Z,33.03
2018-12-29T05:26:54.507Z,32.40
2018-12-29T05:29:38.703Z,34.07
2018-12-29T05:32:23.164Z,30.20
2018-12-29T05:35:08.147Z,30.53
2018-12-29T05:37:52.813Z,29.93
2018-12-29T05:40:37.702Z,30.63
2018-12-29T05:43:22.454Z,31.07
2018-12-29T05:46:07.113Z,30.13
2018-12-29T05:49:00.195Z,27.87
2018-12-29T05:51:44.937Z,26.43
2018-12-29T05:54:29.207Z,29.97
2018-12-29T05:57:14.107Z,31.87
2018-12-29T05:59:58.283Z,28.40
2018-12-29T06:02:51.888Z,31.97
2018-12-29T06:05:36.622Z,30.67
2018-12-29T06:08:21.240Z,32.37
2018-12-29T06:11:06.412Z,29.63
2018-12-29T06:13:51.304Z,26.83
2018-12-29T06:16:36.356Z,28.40
2018-12-29T06:19:29.942Z,28.73
2018-12-29T06:22:14.755Z,30.57
2018-12-29T06:25:00.483Z,29.07
2018-12-29T06:27:44.881Z,27.43
2018-12-29T06:30:38.439Z,27.13
2018-12-29T06:33:22.983Z,28.33
2018-12-29T06:36:07.706Z,30.37
2018-12-29T06:38:52.600Z,32.17
2018-12-29T06:41:37.485Z,34.40
2018-12-29T06:44:22.038Z,30.20
2018-12-29T06:47:06.951Z,29.33
2018-12-29T06:49:51.259Z,26.83
2018-12-29T06:52:44.372Z,31.30
2018-12-29T06:55:28.947Z,29.20
2018-12-29T06:58:13.535Z,29.20
2018-12-29T07:00:58.559Z,25.73
2018-12-29T07:03:44.020Z,25.67
2018-12-29T07:06:28.564Z,25.40
2018-12-29T07:09:13.421Z,26.17
2018-12-29T07:11:58.106Z,22.70
2018-12-29T07:14:43.279Z,25.97
2018-12-29T07:17:37.059Z,25.13
2018-12-29T07:20:21.851Z,24.00
2018-12-29T07:23:06.191Z,27.43
2018-12-29T07:25:50.704Z,25.23
2018-12-29T07:28:35.513Z,25.90
2018-12-29T07:31:19.899Z,24.67
2018-12-29T07:34:13.400Z,25.07
2018-12-29T07:36:57.980Z,25.57
2018-12-29T07:39:42.640Z,24.77
2018-12-29T07:42:27.320Z,24.37
2018-12-29T07:45:12.376Z,24.50
2018-12-29T07:47:57.286Z,28.90
2018-12-29T07:50:42.363Z,25.20
2018-12-29T07:53:26.920Z,27.33
2018-12-29T07:56:12.131Z,26.63
2018-12-29T07:58:57.104Z,29.07
2018-12-29T08:01:50.347Z,31.07
2018-12-29T08:04:34.707Z,28.60
2018-12-29T08:07:19.752Z,36.10
2018-12-29T08:10:04.527Z,27.07
2018-12-29T08:12:48.986Z,27.43
2018-12-29T08:15:42.284Z,29.80
2018-12-29T08:18:26.959Z,24.70
2018-12-29T08:21:11.667Z,26.77
2018-12-29T08:23:56.427Z,27.43
2018-12-29T08:26:40.808Z,27.07
2018-12-29T08:29:25.676Z,27.73
2018-12-29T08:32:10.515Z,24.80
2018-12-29T08:34:54.691Z,27.60
2018-12-29T08:37:40.603Z,24.77
2018-12-29T08:40:24.918Z,26.07
2018-12-29T08:43:09.232Z,25.73
2018-12-29T08:46:03.196Z,23.23
2018-12-29T08:48:56.883Z,27.40
2018-12-29T08:51:41.516Z,23.57
2018-12-29T08:54:26.227Z,25.47
2018-12-29T08:57:11.051Z,25.00
2018-12-29T08:59:55.457Z,23.13
2018-12-29T09:02:40.140Z,27.20
2018-12-29T09:05:24.352Z,26.90
2018-12-29T09:08:18.028Z,28.47
2018-12-29T09:11:02.891Z,27.50
2018-12-29T09:13:47.640Z,30.67
2018-12-29T09:16:32.543Z,33.43
2018-12-29T09:19:16.912Z,29.40
2018-12-29T09:22:01.371Z,25.33
2018-12-29T09:24:45.990Z,28.30
2018-12-29T09:27:39.559Z,24.17
2018-12-29T09:30:24.343Z,26.07
2018-12-29T09:33:09.263Z,22.50
2018-12-29T09:35:53.852Z,23.07
2018-12-29T09:38:38.473Z,24.07
2018-12-29T09:41:23.067Z,25.67
2018-12-29T09:44:17.796Z,24.30
2018-12-29T09:47:11.238Z,26.43
2018-12-29T09:49:56.012Z,26.57
2018-12-29T09:52:40.651Z,27.83
2018-12-29T09:55:25.318Z,24.33
2018-12-29T09:58:10.555Z,28.37
2018-12-29T10:00:54.855Z,26.27
2018-12-29T10:03:39.157Z,27.77
2018-12-29T10:06:32.676Z,27.53
2018-12-29T10:09:17.428Z,27.97
2018-12-29T10:12:02.316Z,31.07
2018-12-29T10:14:46.899Z,29.70
2018-12-29T10:17:31.272Z,30.70
2018-12-29T10:20:16.200Z,32.40
2018-12-29T10:23:01.411Z,30.47
2018-12-29T10:25:45.976Z,31.50
2018-12-29T10:28:40.508Z,29.83
2018-12-29T10:31:25.151Z,36.20
2018-12-29T10:34:10.119Z,34.80
2018-12-29T10:36:54.448Z,32.27
2018-12-29T10:39:39.079Z,31.97
2018-12-29T10:42:23.257Z,34.83
2018-12-29T10:45:16.745Z,31.37
2018-12-29T10:48:01.096Z,33.47
2018-12-29T10:50:45.482Z,33.23
2018-12-29T10:53:38.896Z,36.33
2018-12-29T10:56:23.291Z,34.83
2018-12-29T10:59:07.741Z,33.93
2018-12-29T11:01:52.839Z,34.70
2018-12-29T11:04:37.285Z,33.50
2018-12-29T11:07:22.281Z,38.30
2018-12-29T11:10:07.445Z,38.63
2018-12-29T11:12:52.175Z,35.53
2018-12-29T11:15:36.599Z,31.60
2018-12-29T11:18:19.459Z,33.13
2018-12-29T11:21:13.104Z,37.20
2018-12-29T11:23:57.554Z,36.97
2018-12-29T11:26:42.448Z,37.30
2018-12-29T11:29:27.124Z,33.53
2018-12-29T11:32:12.031Z,34.00
2018-12-29T11:34:56.724Z,32.77
2018-12-29T11:37:41.527Z,35.97
2018-12-29T11:40:25.995Z,35.30
2018-12-29T11:43:10.542Z,34.37
2018-12-29T11:46:05.591Z,32.43
2018-12-29T11:48:59.548Z,33.77
2018-12-29T11:51:43.991Z,33.73
2018-12-29T11:54:28.659Z,36.03
2018-12-29T11:57:13.544Z,36.53
2018-12-29T11:59:58.328Z,33.97
2018-12-29T12:02:43.000Z,35.20
2018-12-29T12:05:27.991Z,32.53
2018-12-29T12:08:12.579Z,37.10
2018-12-29T12:11:06.796Z,34.70
2018-12-29T12:13:51.448Z,37.23
2018-12-29T12:16:35.898Z,35.07
2018-12-29T12:19:20.904Z,35.90
2018-12-29T12:22:05.596Z,32.73
2018-12-29T12:24:50.263Z,32.37
2018-12-29T12:27:35.007Z,35.77
2018-12-29T12:30:28.223Z,34.50
2018-12-29T12:33:12.654Z,36.43
2018-12-29T12:35:57.663Z,33.90
2018-12-29T12:38:42.403Z,36.50
2018-12-29T12:41:26.983Z,35.67
2018-12-29T12:44:12.127Z,35.47
2018-12-29T12:46:56.914Z,33.00
2018-12-29T12:49:41.550Z,35.53
2018-12-29T12:52:26.847Z,34.83
2018-12-29T12:55:11.229Z,35.53
2018-12-29T12:57:55.355Z,35.17
2018-12-29T13:00:40.672Z,39.03
2018-12-29T13:03:25.015Z,36.80
2018-12-29T13:06:18.103Z,33.47
2018-12-29T13:09:02.930Z,33.90
2018-12-29T13:11:48.927Z,34.97
2018-12-29T13:14:33.376Z,40.70
2018-12-29T13:17:18.456Z,35.80
2018-12-29T13:20:02.819Z,33.10
2018-12-29T13:22:56.363Z,34.03
2018-12-29T13:25:41.315Z,38.10
2018-12-29T13:28:25.671Z,41.47
2018-12-29T13:31:10.288Z,40.23
2018-12-29T13:33:55.052Z,36.10
2018-12-29T13:36:39.751Z,32.80
2018-12-29T13:39:24.459Z,34.50
2018-12-29T13:42:08.803Z,33.47
2018-12-29T13:45:02.552Z,37.07
2018-12-29T13:47:47.407Z,32.50
2018-12-29T13:50:31.931Z,31.17
2018-12-29T13:53:16.743Z,31.63
2018-12-29T13:56:01.531Z,32.50
2018-12-29T13:58:47.244Z,44.20
2018-12-29T14:01:40.576Z,33.37
2018-12-29T14:04:25.263Z,35.20
2018-12-29T14:07:09.803Z,34.57
2018-12-29T14:09:54.395Z,27.20
2018-12-29T14:12:39.547Z,29.00
2018-12-29T14:15:24.112Z,25.30
2018-12-29T14:18:08.616Z,26.63
2018-12-29T14:20:53.540Z,26.97
2018-12-29T14:23:38.450Z,24.00
2018-12-29T14:26:22.843Z,23.60
2018-12-29T14:29:15.843Z,24.90
2018-12-29T14:32:00.351Z,23.27
2018-12-29T14:34:44.691Z,23.80
2018-12-29T14:37:38.067Z,25.27
2018-12-29T14:40:22.431Z,24.43
2018-12-29T14:43:07.023Z,28.23
2018-12-29T14:46:00.187Z,25.23
2018-12-29T14:48:44.639Z,24.27
2018-12-29T14:51:29.240Z,27.20
2018-12-29T14:54:13.875Z,23.43
2018-12-29T14:57:07.095Z,25.83
2018-12-29T14:59:51.967Z,22.93
2018-12-29T15:02:36.312Z,24.10
2018-12-29T15:05:20.752Z,24.07
2018-12-29T15:08:13.784Z,26.80
2018-12-29T15:10:58.667Z,27.13
2018-12-29T15:13:43.491Z,25.97
2018-12-29T15:16:28.448Z,25.43
2018-12-29T15:19:12.579Z,27.30
2018-12-29T15:21:57.359Z,27.23
2018-12-29T15:24:41.911Z,26.70
2018-12-29T15:27:34.939Z,25.33
2018-12-29T15:30:19.599Z,26.63
2018-12-29T15:33:04.175Z,26.40
2018-12-29T15:35:49.028Z,26.63
2018-12-29T15:38:33.371Z,25.67
2018-12-29T15:41:18.387Z,30.00
2018-12-29T15:44:03.655Z,28.10
2018-12-29T15:46:48.095Z,26.70
2018-12-29T15:49:32.918Z,26.63
2018-12-29T15:52:17.678Z,25.93
2018-12-29T15:55:02.822Z,25.40
2018-12-29T15:57:47.639Z,25.27
2018-12-29T16:00:32.423Z,27.87
2018-12-29T16:03:17.528Z,25.50
2018-12-29T16:06:02.390Z,26.23
2018-12-29T16:08:48.483Z,27.80
2018-12-29T16:11:33.115Z,27.03
2018-12-29T16:14:17.603Z,29.00
2018-12-29T16:17:02.312Z,27.03
2018-12-29T16:19:55.725Z,26.53
2018-12-29T16:22:40.324Z,25.47
2018-12-29T16:25:25.167Z,29.53
2018-12-29T16:28:10.723Z,28.97
2018-12-29T16:31:04.855Z,27.40
2018-12-29T16:33:53.733Z,32.87
2018-12-29T16:36:36.148Z,29.87
2018-12-29T16:39:21.075Z,31.53
2018-12-29T16:42:05.723Z,29.50
2018-12-29T16:44:58.944Z,31.27
2018-12-29T16:47:43.602Z,35.77
2018-12-29T16:50:28.363Z,34.57
2018-12-29T16:53:12.787Z,36.37
2018-12-29T16:55:57.313Z,34.37
2018-12-29T16:58:50.385Z,33.27
2018-12-29T17:01:35.059Z,33.97
2018-12-29T17:04:19.899Z,33.13
2018-12-29T17:07:04.225Z,37.47
2018-12-29T17:09:57.852Z,32.93
2018-12-29T17:12:51.363Z,34.37
2018-12-29T17:15:35.967Z,33.47
2018-12-29T17:18:22.713Z,35.17
2018-12-29T17:21:07.328Z,37.73
2018-12-29T17:23:51.849Z,33.90
2018-12-29T17:26:36.412Z,30.03
2018-12-29T17:29:21.893Z,32.47
2018-12-29T17:32:07.119Z,38.33
2018-12-29T17:35:00.779Z,37.30
2018-12-29T17:37:45.825Z,33.73
2018-12-29T17:40:30.642Z,36.37
2018-12-29T17:43:15.428Z,32.10
2018-12-29T17:46:00.518Z,33.93
2018-12-29T17:48:56.440Z,32.80
2018-12-29T17:51:49.187Z,36.33
2018-12-29T17:54:34.256Z,33.60
2018-12-29T17:57:19.267Z,35.43
2018-12-29T18:00:04.119Z,33.97
2018-12-29T18:02:48.796Z,36.50
2018-12-29T18:05:33.436Z,33.97
2018-12-29T18:08:17.706Z,30.47
2018-12-29T18:11:02.715Z,28.73
2018-12-29T18:13:47.471Z,25.70
2018-12-29T18:16:32.720Z,24.37
2018-12-29T18:19:17.215Z,24.37
2018-12-29T18:22:01.792Z,22.37
2018-12-29T18:24:47.208Z,19.73
2018-12-29T18:27:32.091Z,20.43
2018-12-29T18:30:16.979Z,19.80
2018-12-29T18:33:01.584Z,20.30
2018-12-29T18:35:46.856Z,16.67
2018-12-29T18:38:31.699Z,17.03
2018-12-29T18:41:25.515Z,16.80
2018-12-29T18:44:10.059Z,13.30
2018-12-29T18:46:55.003Z,13.20
2018-12-29T18:49:39.710Z,11.40
2018-12-29T18:52:25.254Z,11.13
2018-12-29T18:55:18.391Z,11.77
2018-12-29T18:58:03.323Z,10.30
2018-12-29T19:00:48.086Z,11.30
2018-12-29T19:03:32.924Z,10.50
2018-12-29T19:06:18.470Z,7.23
2018-12-29T19:09:04.331Z,8.33
2018-12-29T19:11:58.471Z,7.50
2018-12-29T19:14:42.836Z,7.50
2018-12-29T19:17:27.894Z,6.03
2018-12-29T19:20:22.232Z,7.37
2018-12-29T19:23:06.707Z,7.67
2018-12-29T19:25:51.172Z,7.33
2018-12-29T19:28:36.977Z,7.20
2018-12-29T19:31:30.600Z,7.60
2018-12-29T19:34:24.344Z,8.07
2018-12-29T19:37:08.827Z,8.23
2018-12-29T19:39:54.108Z,8.23
2018-12-29T19:42:39.067Z,7.37
2018-12-29T19:45:23.591Z,7.87
2018-12-29T19:48:17.508Z,7.30
2018-12-29T19:51:02.006Z,8.13
2018-12-29T19:53:47.116Z,9.00
2018-12-29T19:56:31.912Z,7.73
2018-12-29T19:59:17.045Z,7.80
2018-12-29T20:02:01.304Z,8.93
2018-12-29T20:04:46.000Z,6.17
2018-12-29T20:07:30.498Z,5.07
2018-12-29T20:10:23.679Z,5.87
2018-12-29T20:13:08.460Z,5.43
2018-12-29T20:15:52.591Z,6.80
2018-12-29T20:18:37.127Z,21.63
2018-12-29T20:21:30.604Z,30.93
2018-12-29T20:24:15.220Z,243.97
2018-12-29T20:26:59.340Z,160.47
2018-12-29T20:29:44.430Z,85.20
2018-12-29T20:32:29.328Z,48.60
2018-12-29T20:35:14.209Z,39.17
2018-12-29T20:37:59.122Z,29.80
2018-12-29T20:40:44.131Z,17.20
2018-12-29T20:43:28.460Z,13.67
2018-12-29T20:46:13.095Z,13.50
2018-12-29T20:48:57.823Z,15.07
2018-12-29T20:51:50.951Z,14.33
2018-12-29T20:54:35.748Z,13.60
2018-12-29T20:57:20.390Z,14.23
2018-12-29T21:00:05.020Z,14.70
2018-12-29T21:02:49.344Z,14.03
2018-12-29T21:05:42.520Z,13.83
2018-12-29T21:08:27.308Z,15.33
2018-12-29T21:11:12.380Z,14.70
2018-12-29T21:13:56.895Z,13.97
2018-12-29T21:16:41.192Z,16.53
2018-12-29T21:19:34.731Z,13.57
2018-12-29T21:22:28.666Z,11.20
2018-12-29T21:25:12.847Z,10.43
2018-12-29T21:27:57.518Z,9.93
2018-12-29T21:30:42.496Z,10.77
2018-12-29T21:33:27.239Z,11.07
2018-12-29T21:36:13.383Z,11.20
2018-12-29T21:38:58.098Z,9.53
2018-12-29T21:41:42.673Z,9.87
2018-12-29T21:44:36.160Z,10.53
2018-12-29T21:47:21.102Z,9.37
2018-12-29T21:50:05.811Z,10.60
2018-12-29T21:52:50.627Z,11.90
2018-12-29T21:55:35.307Z,11.00
2018-12-29T21:58:19.780Z,11.77
2018-12-29T22:01:04.315Z,11.77
2018-12-29T22:03:48.712Z,12.43
2018-12-29T22:06:41.904Z,11.87
2018-12-29T22:09:26.511Z,10.50
2018-12-29T22:12:11.454Z,10.67
2018-12-29T22:14:56.009Z,10.03
2018-12-29T22:17:50.863Z,7.33
2018-12-29T22:20:35.235Z,6.13
2018-12-29T22:23:20.146Z,6.13
2018-12-29T22:26:05.068Z,3.70
2018-12-29T22:28:50.108Z,5.10
2018-12-29T22:31:43.869Z,4.83
2018-12-29T22:34:28.479Z,4.13
2018-12-29T22:37:13.048Z,3.80
2018-12-29T22:39:57.543Z,2.97
2018-12-29T22:42:42.351Z,2.93
2018-12-29T22:45:27.139Z,2.13
2018-12-29T22:48:11.859Z,2.73
2018-12-29T22:51:05.020Z,2.53
2018-12-29T22:53:49.662Z,3.40
2018-12-29T22:56:34.503Z,1.77
2018-12-29T22:59:19.271Z,1.53
2018-12-29T23:02:04.003Z,2.80
2018-12-29T23:04:48.373Z,2.83
2018-12-29T23:07:33.380Z,1.77
2018-12-29T23:10:17.954Z,2.10
2018-12-29T23:13:02.819Z,2.40
2018-12-29T23:15:47.623Z,2.40
2018-12-29T23:18:32.122Z,2.30
2018-12-29T23:21:25.281Z,2.63
2018-12-29T23:24:09.887Z,1.83
2018-12-29T23:26:54.584Z,3.27
2018-12-29T23:29:39.595Z,2.63
2018-12-29T23:32:24.375Z,4.00
2018-12-29T23:35:09.092Z,2.33
2018-12-29T23:37:54.295Z,2.40
2018-12-29T23:40:39.142Z,3.10
2018-12-29T23:43:23.970Z,3.07
2018-12-29T23:46:08.593Z,3.93
2018-12-29T23:48:53.391Z,3.37
2018-12-29T23:51:38.240Z,2.57
2018-12-29T23:54:23.153Z,3.07
2018-12-29T23:57:07.875Z,3.07
2018-12-29T23:59:52.740Z,3.70
